Impacts TAF Board
For situational awareness. Not to be used for flight planning purposes.
IDs:

KPGA - Page Muni, AZ, US

Issued at 1720 UTC 30 Oct 2020
Updated at 1737 UTC 30 Oct 2020
Potential Impact None Slight Moderate High
Time1653Z 30/18Z 30/19Z 30/20Z 30/21Z 30/22Z 30/23Z 31/00Z 31/01Z 31/02Z 31/03Z 31/04Z 31/05Z 31/06Z>>
Type OBS PRVL PRVL PRVL PRVL PRVL PRVL PRVL PRVL PRVL PRVL PRVL PRVL PRVL
VIS 10 >6 >6 >6 >6 >6 >6 >6 >6 >6 >6 >6 >6 >6
CIG -- -- -- -- -- -- -- -- -- -- -- -- -- --
Cover CLR SKC SKC SKC SKC SKC SKC SKC SKC SKC SKC SKC SKC SKC
FltCat VFR VFR VFR VFR VFR VFR VFR VFR VFR VFR VFR VFR VFR VFR
WX -- -- -- -- -- -- -- -- -- -- -- -- -- --
WDir 340 VRB VRB VRB VRB VRB VRB VRB VRB VRB VRB VRB VRB VRB
WSpd 4 5 5 5 5 5 5 5 5 5 5 5 5 5
WGst -- -- -- -- -- -- -- -- -- -- -- -- -- --
Raw TAF
KPGA 301720Z 3018/3118 VRB05KT P6SM SKC

Raw METAR
KPGA 301653Z AUTO 34004KT 10SM CLR 12/M04 A3026 RMK AO2 SLP223 T01171044 TSNO
KPGA 301553Z AUTO VRB03KT 10SM CLR 10/M06 A3027 RMK AO2 SLP229 T01001056 TSNO
KPGA 301453Z AUTO 28004KT 10SM CLR 08/M04 A3026 RMK AO2 SLP224 T00831039 53007 TSNO

METAR Board
Radar Display
Forecast Discussion
For situational awareness. Not to be used for flight planning purposes.